Time;durP1;ratioP1;P1;durP2;ratioP2;P2;SDS_P1;SDS_P2;PMS_P1;PMS_P2;Temp;Humidity;BMP_temperature;BMP_pressure;BME280_temperature;BME280_humidity;BME280_pressure;Samples;Min_cycle;Max_cycle;Signal;HPM_P1;HPM_P2
2022/08/21 00:02:16;;;;;;;8.27;5.30;;;18.50;1.00;;;;;;5088734;28;20455;-74
2022/08/21 00:04:41;;;;;;;10.00;4.80;;;18.50;1.00;;;;;;5090667;28;20187;-74
2022/08/21 00:07:07;;;;;;;8.47;5.10;;;18.40;1.00;;;;;;5089169;28;20438;-73
2022/08/21 00:09:32;;;;;;;9.90;5.70;;;18.40;1.00;;;;;;5090663;28;20235;-74
2022/08/21 00:11:58;;;;;;;7.07;5.00;;;18.40;1.00;;;;;;5087230;28;20176;-74
2022/08/21 00:14:23;;;;;;;9.07;5.20;;;18.40;1.00;;;;;;5090693;28;20196;-74
2022/08/21 00:16:49;;;;;;;6.87;4.90;;;18.40;1.00;;;;;;5088521;28;20430;-74
2022/08/21 00:19:15;;;;;;;8.23;5.00;;;18.40;1.00;;;;;;5090247;28;20179;-74
2022/08/21 00:21:41;;;;;;;7.77;5.17;;;18.40;1.00;;;;;;5086317;28;20187;-74
2022/08/21 00:24:06;;;;;;;8.53;5.50;;;18.30;1.00;;;;;;5088049;28;20643;-74
2022/08/21 00:26:32;;;;;;;7.87;5.00;;;18.40;1.00;;;;;;5088471;28;20438;-74
2022/08/21 00:28:57;;;;;;;7.73;4.80;;;18.40;1.00;;;;;;5080876;28;20291;-73
2022/08/21 00:31:23;;;;;;;8.47;5.30;;;18.40;1.00;;;;;;5088718;28;20638;-74
2022/08/21 00:33:48;;;;;;;9.53;4.60;;;18.40;1.00;;;;;;5089287;28;20199;-73
2022/08/21 00:36:14;;;;;;;10.93;5.10;;;18.30;1.00;;;;;;5089371;28;20681;-74
2022/08/21 00:38:40;;;;;;;7.70;5.23;;;18.30;1.00;;;;;;5091888;28;20175;-73
2022/08/21 00:41:07;;;;;;;8.97;5.33;;;18.20;1.00;;;;;;5082785;28;20191;-72
2022/08/21 00:43:35;;;;;;;7.30;5.20;;;18.10;1.00;;;;;;5087498;28;20234;-73
2022/08/21 00:46:03;;;;;;;6.73;4.60;;;18.10;1.00;;;;;;5081667;28;20468;-73
2022/08/21 00:48:28;;;;;;;8.97;5.20;;;18.10;1.00;;;;;;5085756;28;20429;-73
2022/08/21 00:51:03;;;;;;;8.00;5.07;;;18.00;1.00;;;;;;5087233;28;20665;-74
2022/08/21 00:53:30;;;;;;;5.97;4.77;;;18.00;1.00;;;;;;5079798;28;20279;-73
2022/08/21 00:55:57;;;;;;;10.03;5.10;;;18.00;1.00;;;;;;5085960;28;20426;-74
2022/08/21 00:58:25;;;;;;;6.80;5.00;;;17.80;1.00;;;;;;5082332;28;20429;-73
2022/08/21 01:00:51;;;;;;;16.93;5.20;;;17.80;1.00;;;;;;5089663;28;20422;-73
2022/08/21 01:03:19;;;;;;;8.07;5.47;;;17.60;1.00;;;;;;5087756;28;20457;-73
2022/08/21 01:05:45;;;;;;;7.60;6.07;;;17.50;1.00;;;;;;5089894;28;20503;-74
2022/08/21 01:08:12;;;;;;;6.30;5.30;;;17.40;1.00;;;;;;5088048;28;20746;-74
2022/08/21 01:10:39;;;;;;;9.67;5.80;;;17.30;1.00;;;;;;5089004;28;20457;-74
2022/08/21 01:13:06;;;;;;;7.80;5.40;;;17.30;1.00;;;;;;5087813;28;20453;-74
2022/08/21 01:15:36;;;;;;;8.93;5.20;;;17.30;1.00;;;;;;5089781;28;20560;-73
2022/08/21 01:18:04;;;;;;;6.53;5.27;;;17.20;1.00;;;;;;5087477;28;20441;-73
2022/08/21 01:20:30;;;;;;;6.43;5.40;;;17.20;1.00;;;;;;5085786;28;20445;-74
2022/08/21 01:22:56;;;;;;;6.70;5.20;;;17.10;1.00;;;;;;5090140;28;20432;-74
2022/08/21 01:25:22;;;;;;;6.53;4.47;;;17.00;1.00;;;;;;5087120;28;20438;-74
2022/08/21 01:27:48;;;;;;;12.60;5.50;;;16.90;1.00;;;;;;5082399;28;20196;-74
2022/08/21 01:30:16;;;;;;;6.73;4.30;;;16.90;1.00;;;;;;5088046;28;20311;-73
2022/08/21 01:32:42;;;;;;;5.77;4.40;;;16.90;1.00;;;;;;5084404;28;20785;-74
2022/08/21 01:35:09;;;;;;;6.77;5.23;;;16.90;1.00;;;;;;5087103;28;20444;-73
2022/08/21 01:37:35;;;;;;;7.67;4.97;;;16.80;1.00;;;;;;5087402;28;20180;-74
2022/08/21 01:40:01;;;;;;;8.13;4.97;;;16.80;1.00;;;;;;5082015;28;20643;-74
2022/08/21 01:42:27;;;;;;;8.03;4.60;;;16.80;1.00;;;;;;5083800;28;20435;-74
2022/08/21 01:44:52;;;;;;;10.53;5.33;;;16.80;1.00;;;;;;5088572;28;20429;-74
2022/08/21 01:47:18;;;;;;;8.70;5.40;;;16.80;1.00;;;;;;5086240;28;20668;-74
2022/08/21 01:49:44;;;;;;;7.23;5.23;;;16.80;1.00;;;;;;5088868;28;20741;-74
2022/08/21 01:52:11;;;;;;;7.43;4.70;;;16.70;1.00;;;;;;5087331;28;20523;-74
2022/08/21 01:54:37;;;;;;;7.47;5.07;;;16.70;1.00;;;;;;5089106;28;20422;-74
2022/08/21 01:57:04;;;;;;;8.00;5.13;;;16.70;1.00;;;;;;5082384;28;20422;-74
2022/08/21 01:59:29;;;;;;;9.07;5.70;;;16.80;1.00;;;;;;5082421;28;20975;-74
2022/08/21 02:01:55;;;;;;;6.67;4.80;;;16.80;1.00;;;;;;5086613;28;20557;-74
2022/08/21 02:04:20;;;;;;;7.50;5.30;;;16.80;1.00;;;;;;5089467;28;20221;-74
2022/08/21 02:06:46;;;;;;;10.10;5.47;;;16.80;1.00;;;;;;5088101;28;20674;-74
2022/08/21 02:09:13;;;;;;;8.10;4.63;;;16.70;1.00;;;;;;5092221;28;20172;-74
2022/08/21 02:11:40;;;;;;;6.73;5.13;;;16.70;1.00;;;;;;5091311;28;20413;-74
2022/08/21 02:14:07;;;;;;;6.20;4.47;;;16.70;1.00;;;;;;5093250;28;20421;-74
2022/08/21 02:16:33;;;;;;;4.90;4.20;;;16.70;1.00;;;;;;5089549;28;21015;-74
2022/08/21 02:18:58;;;;;;;7.87;4.97;;;16.70;1.00;;;;;;5088421;28;20434;-74
2022/08/21 02:21:24;;;;;;;8.33;5.00;;;16.60;1.00;;;;;;5086933;28;20441;-74
2022/08/21 02:23:49;;;;;;;5.10;4.60;;;16.60;1.00;;;;;;5088897;28;20192;-74
2022/08/21 02:26:15;;;;;;;8.07;4.37;;;16.60;1.00;;;;;;5093296;28;20519;-74
2022/08/21 02:28:41;;;;;;;6.83;4.57;;;16.50;1.00;;;;;;5089990;28;20688;-74
2022/08/21 02:31:07;;;;;;;6.27;4.60;;;16.50;1.00;;;;;;5092640;28;20187;-74
2022/08/21 02:33:33;;;;;;;6.20;4.70;;;16.50;1.00;;;;;;5084148;28;20199;-74
2022/08/21 02:35:59;;;;;;;10.90;4.63;;;16.40;1.00;;;;;;5093049;28;20164;-76
2022/08/21 02:38:29;;;;;;;6.87;4.97;;;16.30;1.00;;;;;;5086700;28;21015;-74
2022/08/21 02:40:55;;;;;;;6.67;5.07;;;16.30;1.00;;;;;;5092311;28;20449;-74
2022/08/21 02:43:22;;;;;;;5.97;4.90;;;16.20;1.00;;;;;;5091076;28;20548;-74
2022/08/21 02:45:49;;;;;;;7.80;5.10;;;16.20;1.00;;;;;;5092707;28;20807;-73
2022/08/21 02:48:18;;;;;;;5.87;4.87;;;16.10;1.00;;;;;;5088122;28;20475;-74
2022/08/21 02:51:06;;;;;;;7.07;4.63;;;16.10;1.00;;;;;;5090789;28;20547;-74
2022/08/21 02:53:34;;;;;;;8.07;4.73;;;16.00;1.00;;;;;;5090587;28;20457;-73
2022/08/21 02:56:01;;;;;;;7.13;4.63;;;15.90;1.00;;;;;;5091511;28;20809;-73
2022/08/21 02:58:41;;;;;;;7.30;4.70;;;15.90;1.00;;;;;;5087622;28;20533;-74
2022/08/21 03:01:09;;;;;;;5.50;4.77;;;15.80;1.00;;;;;;5084357;28;20788;-73
2022/08/21 03:03:36;;;;;;;7.57;5.00;;;15.90;1.00;;;;;;5085370;28;21006;-73
2022/08/21 03:06:03;;;;;;;6.33;4.63;;;15.80;1.00;;;;;;5092786;28;20418;-74
2022/08/21 03:08:29;;;;;;;7.90;4.67;;;16.00;1.00;;;;;;5088706;28;20490;-74
2022/08/21 03:10:55;;;;;;;5.27;4.10;;;15.80;1.00;;;;;;5091874;28;20457;-73
2022/08/21 03:13:21;;;;;;;5.77;4.50;;;15.80;1.00;;;;;;5090235;28;20199;-74
2022/08/21 03:15:48;;;;;;;7.47;4.50;;;15.80;1.00;;;;;;5092456;28;20436;-74
2022/08/21 03:18:14;;;;;;;9.90;4.73;;;15.70;1.00;;;;;;5084524;28;20229;-74
2022/08/21 03:20:41;;;;;;;8.80;4.97;;;15.70;1.00;;;;;;5090270;28;20453;-74
2022/08/21 03:23:08;;;;;;;6.47;4.67;;;15.70;1.00;;;;;;5086220;28;20199;-74
2022/08/21 03:25:35;;;;;;;10.20;4.97;;;15.60;1.00;;;;;;5091816;28;20784;-74
2022/08/21 03:28:03;;;;;;;14.27;4.87;;;15.50;1.00;;;;;;5089295;28;20835;-74
2022/08/21 03:30:31;;;;;;;6.60;4.67;;;15.40;1.00;;;;;;5091776;28;20454;-74
2022/08/21 03:32:58;;;;;;;6.50;4.70;;;15.40;1.00;;;;;;5089349;28;20453;-74
2022/08/21 03:35:23;;;;;;;6.40;4.30;;;15.40;1.00;;;;;;5091762;28;20441;-74
2022/08/21 03:37:49;;;;;;;9.27;4.67;;;15.40;1.00;;;;;;5083275;28;20466;-74
2022/08/21 03:40:17;;;;;;;9.27;4.77;;;15.40;1.00;;;;;;5091172;28;20649;-74
2022/08/21 03:42:46;;;;;;;6.30;4.80;;;15.50;1.00;;;;;;5089792;28;20224;-73
2022/08/21 03:45:13;;;;;;;7.53;4.07;;;15.40;1.00;;;;;;5091657;28;20404;-73
2022/08/21 03:47:49;;;;;;;7.13;4.60;;;15.50;1.00;;;;;;5089059;28;20437;-74
2022/08/21 03:50:16;;;;;;;5.40;4.37;;;15.40;1.00;;;;;;5089566;28;20569;-74
2022/08/21 03:52:42;;;;;;;6.20;4.50;;;15.40;1.00;;;;;;5089381;28;20524;-74
2022/08/21 03:55:07;;;;;;;8.10;4.77;;;15.40;1.00;;;;;;5091105;28;20678;-74
2022/08/21 03:57:33;;;;;;;5.33;4.23;;;15.40;1.00;;;;;;5085208;28;20651;-74
2022/08/21 03:59:58;;;;;;;6.07;4.27;;;15.40;1.00;;;;;;5091233;28;20171;-73
2022/08/21 04:02:25;;;;;;;6.43;4.60;;;15.40;1.00;;;;;;5089122;28;20184;-74
2022/08/21 04:04:50;;;;;;;7.60;4.63;;;15.40;1.00;;;;;;5091454;28;20685;-74
2022/08/21 04:07:16;;;;;;;7.60;4.77;;;15.40;1.00;;;;;;5101497;28;20491;-74
2022/08/21 04:09:42;;;;;;;5.87;4.40;;;15.40;1.00;;;;;;5105735;28;20198;-73
2022/08/21 04:12:07;;;;;;;7.60;4.43;;;15.30;1.00;;;;;;5103833;28;20426;-73
2022/08/21 04:14:33;;;;;;;7.07;4.47;;;15.30;1.00;;;;;;5096269;28;20431;-73
2022/08/21 04:16:59;;;;;;;8.80;5.00;;;15.40;1.00;;;;;;5088065;28;20175;-73
2022/08/21 04:19:24;;;;;;;8.53;4.63;;;15.40;1.00;;;;;;5089430;28;20232;-74
2022/08/21 04:21:50;;;;;;;7.20;4.53;;;15.70;1.00;;;;;;5090606;28;20263;-74
2022/08/21 04:24:16;;;;;;;7.57;4.70;;;15.40;1.00;;;;;;5088635;28;20207;-74
2022/08/21 04:26:41;;;;;;;8.33;4.73;;;15.40;1.00;;;;;;5088821;28;20184;-73
2022/08/21 04:29:07;;;;;;;8.70;5.00;;;15.30;1.00;;;;;;5083587;28;20251;-73
2022/08/21 04:31:34;;;;;;;7.87;5.20;;;15.30;1.00;;;;;;5088334;28;20245;-75
2022/08/21 04:33:59;;;;;;;6.33;4.07;;;15.30;1.00;;;;;;5082048;28;20594;-73
2022/08/21 04:36:25;;;;;;;12.93;4.50;;;15.20;1.00;;;;;;5088258;28;20430;-74
2022/08/21 04:38:51;;;;;;;6.47;4.57;;;15.20;1.00;;;;;;5090209;28;20236;-74
2022/08/21 04:41:16;;;;;;;5.97;4.60;;;15.20;1.00;;;;;;5086531;28;20626;-74
2022/08/21 04:43:42;;;;;;;5.97;4.30;;;15.20;1.00;;;;;;5090458;28;20558;-73
2022/08/21 04:46:08;;;;;;;5.30;4.43;;;15.20;1.00;;;;;;5086530;28;20251;-74
2022/08/21 04:48:34;;;;;;;7.60;4.53;;;15.20;1.00;;;;;;5070249;28;20182;-73
2022/08/21 04:51:02;;;;;;;6.20;4.30;;;15.20;1.00;;;;;;5087382;28;20899;-75
2022/08/21 04:53:33;;;;;;;6.10;4.57;;;15.20;1.00;;;;;;5090654;28;20491;-74
2022/08/21 04:56:04;;;;;;;4.73;4.10;;;15.20;1.00;;;;;;5079751;28;20425;-74
2022/08/21 04:58:32;;;;;;;8.27;3.90;;;15.20;1.00;;;;;;5082906;28;20517;-74
2022/08/21 05:00:58;;;;;;;12.23;4.30;;;15.30;1.00;;;;;;5090593;28;20414;-74
2022/08/21 05:03:24;;;;;;;7.47;4.87;;;15.30;1.00;;;;;;5079928;28;20455;-74
2022/08/21 05:05:50;;;;;;;6.20;4.60;;;15.30;1.00;;;;;;5088227;28;20765;-74
2022/08/21 05:08:19;;;;;;;8.27;4.80;;;15.40;1.00;;;;;;5087930;28;20707;-74
2022/08/21 05:10:44;;;;;;;6.13;4.70;;;15.40;1.00;;;;;;5089739;28;20204;-74
2022/08/21 05:13:12;;;;;;;6.70;4.50;;;15.50;1.00;;;;;;5087717;28;20458;-74
2022/08/21 05:15:39;;;;;;;9.53;4.57;;;15.60;1.00;;;;;;5089293;28;20176;-75
2022/08/21 05:18:04;;;;;;;6.83;4.40;;;15.60;1.00;;;;;;5087651;28;20847;-74
2022/08/21 05:20:30;;;;;;;6.60;4.30;;;15.60;1.00;;;;;;5084323;28;20470;-74
2022/08/21 05:22:56;;;;;;;6.60;4.43;;;15.80;1.00;;;;;;5087435;28;20192;-74
2022/08/21 05:25:22;;;;;;;9.43;4.77;;;15.80;1.00;;;;;;5088555;28;20548;-74
2022/08/21 05:27:47;;;;;;;5.20;4.47;;;15.90;1.00;;;;;;5083481;28;20588;-74
2022/08/21 05:30:13;;;;;;;5.00;4.30;;;16.10;1.00;;;;;;5089355;28;20496;-74
2022/08/21 05:32:39;;;;;;;7.90;4.90;;;16.20;1.00;;;;;;5087551;28;20212;-74
2022/08/21 05:35:05;;;;;;;8.33;4.53;;;16.30;1.00;;;;;;5086201;28;20255;-74
2022/08/21 05:37:31;;;;;;;7.07;4.30;;;16.30;1.00;;;;;;5086152;28;20176;-73
2022/08/21 05:39:57;;;;;;;10.83;4.87;;;16.40;1.00;;;;;;5088783;28;20410;-74
2022/08/21 05:42:23;;;;;;;6.20;4.50;;;16.50;1.00;;;;;;5085250;28;20184;-74
2022/08/21 05:44:48;;;;;;;6.93;4.57;;;16.70;1.00;;;;;;5081417;28;20262;-74
2022/08/21 05:47:14;;;;;;;6.17;4.40;;;16.80;1.00;;;;;;5085472;28;20514;-74
2022/08/21 05:49:40;;;;;;;9.07;4.37;;;16.90;1.00;;;;;;5081251;28;20561;-74
2022/08/21 05:52:05;;;;;;;8.10;4.93;;;17.10;1.00;;;;;;5089455;28;20398;-75
2022/08/21 05:54:31;;;;;;;8.33;4.30;;;17.10;1.00;;;;;;5082832;28;20208;-74
2022/08/21 05:56:57;;;;;;;7.00;4.73;;;17.20;1.00;;;;;;5086363;28;20168;-76
2022/08/21 05:59:23;;;;;;;7.70;4.57;;;17.20;1.00;;;;;;5087457;28;20271;-74
2022/08/21 06:01:49;;;;;;;8.60;5.03;;;17.30;1.00;;;;;;5088314;28;20406;-74
2022/08/21 06:04:14;;;;;;;8.90;5.20;;;17.40;1.00;;;;;;5087487;28;20195;-74
2022/08/21 06:06:40;;;;;;;14.70;4.70;;;17.50;1.00;;;;;;5074832;28;20252;-76
2022/08/21 06:09:06;;;;;;;8.53;5.23;;;17.60;1.00;;;;;;5083396;28;20176;-75
2022/08/21 06:11:32;;;;;;;6.80;5.17;;;17.60;1.00;;;;;;5089224;28;20235;-76
2022/08/21 06:13:59;;;;;;;7.73;5.20;;;17.60;1.00;;;;;;5076185;28;20752;-74
2022/08/21 06:16:26;;;;;;;8.80;5.20;;;17.80;1.00;;;;;;5086109;28;20776;-74
2022/08/21 06:18:51;;;;;;;6.37;5.13;;;18.00;1.00;;;;;;5082327;28;20444;-73
2022/08/21 06:21:18;;;;;;;9.87;5.30;;;18.20;1.00;;;;;;5079190;28;20424;-74
2022/08/21 06:23:43;;;;;;;16.83;5.90;;;18.30;1.00;;;;;;5083975;28;20545;-75
2022/08/21 06:26:12;;;;;;;7.67;5.40;;;18.50;1.00;;;;;;5078453;28;20506;-74
2022/08/21 06:28:38;;;;;;;8.73;5.93;;;18.60;1.00;;;;;;5081809;28;20628;-75
2022/08/21 06:31:21;;;;;;;10.73;5.90;;;18.60;1.00;;;;;;5089451;28;20830;-74
2022/08/21 06:33:47;;;;;;;11.83;5.73;;;18.70;1.00;;;;;;5086795;28;20990;-75
2022/08/21 06:36:13;;;;;;;11.13;5.20;;;18.90;1.00;;;;;;5088608;28;20418;-75
2022/08/21 06:38:39;;;;;;;9.93;5.30;;;19.20;1.00;;;;;;5087216;28;20495;-75
2022/08/21 06:41:06;;;;;;;10.03;5.57;;;19.30;1.00;;;;;;5088285;28;20441;-75
2022/08/21 06:43:31;;;;;;;11.80;5.77;;;19.50;1.00;;;;;;5082818;28;20461;-75
2022/08/21 06:45:57;;;;;;;9.10;5.10;;;19.70;1.00;;;;;;5085076;28;21008;-78
2022/08/21 06:48:22;;;;;;;8.77;5.20;;;19.90;1.00;;;;;;5087223;28;20187;-79
2022/08/21 06:50:48;;;;;;;10.90;5.50;;;20.40;1.00;;;;;;5086959;28;20227;-77
2022/08/21 06:53:17;;;;;;;7.83;4.97;;;20.80;1.00;;;;;;5087226;28;20206;-78
2022/08/21 06:55:43;;;;;;;6.93;4.90;;;21.10;1.00;;;;;;5090872;28;20653;-78
2022/08/21 06:58:09;;;;;;;9.60;4.90;;;21.40;1.00;;;;;;5086966;28;20441;-77
2022/08/21 07:00:39;;;;;;;13.80;5.70;;;21.50;1.00;;;;;;5092591;28;20425;-78
2022/08/21 07:03:04;;;;;;;9.63;4.90;;;21.70;1.00;;;;;;5090165;28;20457;-78
2022/08/21 07:05:30;;;;;;;9.00;5.07;;;21.80;1.00;;;;;;5087100;28;20427;-78
2022/08/21 07:07:57;;;;;;;9.27;5.30;;;22.00;1.00;;;;;;5075393;28;20184;-78
2022/08/21 07:10:23;;;;;;;10.50;5.13;;;22.10;1.00;;;;;;5091787;28;20226;-78
2022/08/21 07:12:50;;;;;;;8.73;5.30;;;22.30;1.00;;;;;;5090251;28;20801;-77
2022/08/21 07:15:16;;;;;;;9.77;5.47;;;22.50;1.00;;;;;;5085797;28;20432;-77
2022/08/21 07:17:42;;;;;;;7.10;5.30;;;22.50;1.00;;;;;;5083556;28;20426;-78
2022/08/21 07:20:08;;;;;;;8.40;5.30;;;22.60;1.00;;;;;;5084118;28;20266;-77
2022/08/21 07:22:36;;;;;;;10.00;6.07;;;22.80;1.00;;;;;;5089925;28;20201;-77
2022/08/21 07:25:02;;;;;;;16.90;6.50;;;23.10;1.00;;;;;;5080181;28;20437;-78
2022/08/21 07:27:28;;;;;;;9.93;5.80;;;23.20;1.00;;;;;;5073184;28;20445;-77
2022/08/21 07:29:53;;;;;;;8.33;5.20;;;23.30;1.00;;;;;;5091305;28;20954;-78
2022/08/21 07:32:19;;;;;;;14.90;5.80;;;23.50;1.00;;;;;;5084008;28;20282;-78
2022/08/21 07:34:44;;;;;;;13.03;5.67;;;23.60;1.00;;;;;;5088857;28;20621;-77
2022/08/21 07:37:10;;;;;;;9.70;5.57;;;23.70;1.00;;;;;;5089431;28;20335;-78
2022/08/21 07:39:36;;;;;;;10.60;4.90;;;23.70;1.00;;;;;;5091566;28;20183;-78
2022/08/21 07:42:02;;;;;;;13.27;6.20;;;24.00;1.00;;;;;;5088982;28;20182;-78
2022/08/21 07:44:28;;;;;;;11.73;5.50;;;24.20;1.00;;;;;;5087604;28;20229;-78
2022/08/21 07:46:54;;;;;;;10.43;5.60;;;24.60;1.00;;;;;;5091562;28;20998;-78
2022/08/21 07:49:19;;;;;;;12.60;5.20;;;25.10;1.00;;;;;;5086468;28;20182;-77
2022/08/21 07:51:45;;;;;;;9.90;5.73;;;25.90;1.00;;;;;;5083432;28;20175;-78
2022/08/21 07:54:11;;;;;;;8.70;5.57;;;26.90;1.00;;;;;;5088379;28;20199;-78
2022/08/21 07:56:36;;;;;;;11.13;5.30;;;27.90;1.00;;;;;;5089247;28;20253;-78
2022/08/21 07:59:02;;;;;;;9.30;5.50;;;29.10;1.00;;;;;;5094648;28;20191;-79
2022/08/21 08:01:28;;;;;;;10.27;4.75;;;30.00;1.00;;;;;;5086127;28;20183;-79
2022/08/21 08:03:54;;;;;;;9.85;4.88;;;30.90;1.00;;;;;;5091843;28;20218;-82
2022/08/21 08:06:20;;;;;;;9.27;4.93;;;31.40;1.00;;;;;;5089620;28;20506;-80
2022/08/21 08:08:46;;;;;;;8.95;5.03;;;32.10;1.00;;;;;;5083090;28;20228;-79
2022/08/21 08:11:15;;;;;;;8.13;5.13;;;32.50;1.00;;;;;;5096990;28;20199;-80
2022/08/21 08:13:46;;;;;;;8.07;5.00;;;33.00;1.00;;;;;;5095942;28;20202;-79
2022/08/21 08:16:12;;;;;;;9.68;4.68;;;33.60;1.00;;;;;;5097000;28;20189;-79
2022/08/21 08:18:38;;;;;;;10.05;5.22;;;34.20;1.00;;;;;;5089989;28;20183;-80
2022/08/21 08:21:05;;;;;;;12.60;5.05;;;34.40;1.00;;;;;;5098087;28;20253;-79
2022/08/21 08:23:31;;;;;;;10.07;5.55;;;34.90;1.00;;;;;;5090697;28;20206;-79
2022/08/21 08:25:57;;;;;;;9.48;5.35;;;35.20;1.00;;;;;;5088275;28;20191;-80
2022/08/21 08:28:23;;;;;;;8.50;5.22;;;35.00;1.00;;;;;;5088453;28;20268;-79
2022/08/21 08:30:49;;;;;;;6.07;4.40;;;35.40;1.00;;;;;;5093561;28;20207;-79
2022/08/21 08:33:16;;;;;;;9.30;4.57;;;35.90;1.00;;;;;;5084057;28;20190;-79
2022/08/21 08:35:47;;;;;;;8.50;4.50;;;36.50;1.00;;;;;;5091450;28;20207;-79
2022/08/21 08:38:16;;;;;;;9.50;4.57;;;36.70;1.00;;;;;;5085346;28;20654;-79
2022/08/21 08:40:51;;;;;;;10.98;4.80;;;36.90;1.00;;;;;;5094560;28;20488;-77
2022/08/21 08:43:17;;;;;;;6.72;4.75;;;37.50;1.00;;;;;;5087305;28;20199;-77
2022/08/21 08:45:49;;;;;;;8.48;5.13;;;37.60;1.00;;;;;;5077418;28;20199;-77
2022/08/21 08:48:46;;;;;;;9.30;5.22;;;37.60;1.00;;;;;;5072355;28;20254;-77
2022/08/21 08:51:40;;;;;;;9.55;4.70;;;37.90;1.00;;;;;;5073204;28;20379;-77
2022/08/21 08:54:12;;;;;;;7.10;4.70;;;38.20;1.00;;;;;;5078012;28;20202;-78
2022/08/21 08:56:38;;;;;;;9.73;4.90;;;38.30;1.00;;;;;;5091423;28;20200;-78
2022/08/21 08:59:28;;;;;;;10.18;4.90;;;38.70;1.00;;;;;;5078021;28;20250;-77
2022/08/21 09:01:54;;;;;;;7.57;4.85;;;39.10;1.00;;;;;;5076928;28;20174;-78
2022/08/21 09:04:28;;;;;;;12.02;5.22;;;39.30;1.00;;;;;;5087110;28;20195;-77
2022/08/21 09:07:34;;;;;;;8.88;5.18;;;39.20;1.00;;;;;;5078985;28;20198;-78
2022/08/21 09:10:21;;;;;;;9.60;5.32;;;39.30;1.00;;;;;;5082032;28;20198;-77
2022/08/21 09:13:20;;;;;;;8.70;5.13;;;39.60;1.00;;;;;;5083635;28;20226;-79
2022/08/21 09:15:58;;;;;;;7.75;5.32;;;39.70;1.00;;;;;;5088246;28;20167;-77
2022/08/21 09:18:49;;;;;;;8.15;4.40;;;39.90;1.00;;;;;;5081973;28;20257;-78
2022/08/21 09:21:23;;;;;;;8.75;5.13;;;40.20;1.00;;;;;;5086599;28;20171;-76
2022/08/21 09:24:16;;;;;;;7.57;4.43;;;40.30;1.00;;;;;;5082383;28;21138;-77
2022/08/21 09:27:01;;;;;;;6.63;4.72;;;40.60;1.00;;;;;;5083026;28;20569;-78
2022/08/21 09:29:31;;;;;;;8.65;4.57;;;40.70;1.00;;;;;;5081214;28;20183;-78
2022/08/21 09:31:56;;;;;;;6.55;4.63;;;41.10;1.00;;;;;;5087210;28;20166;-78
2022/08/21 09:34:29;;;;;;;7.90;4.40;;;41.40;1.00;;;;;;5092055;28;20202;-78
2022/08/21 09:36:55;;;;;;;10.70;4.90;;;41.80;1.00;;;;;;5094033;28;20182;-78
2022/08/21 09:39:25;;;;;;;19.33;4.82;;;41.90;1.00;;;;;;5084223;28;20176;-78
2022/08/21 09:42:00;;;;;;;9.43;4.47;;;42.10;1.00;;;;;;5088344;28;20255;-77
2022/08/21 09:44:29;;;;;;;8.82;4.18;;;42.10;1.00;;;;;;5088022;28;20195;-78
2022/08/21 09:46:56;;;;;;;9.07;3.70;;;43.00;1.00;;;;;;5078446;28;20187;-77
2022/08/21 09:49:34;;;;;;;8.27;3.80;;;42.80;1.00;;;;;;5076956;28;20733;-77
2022/08/21 09:52:01;;;;;;;10.15;3.83;;;42.80;1.00;;;;;;5085265;28;20175;-77
2022/08/21 09:54:32;;;;;;;7.43;3.72;;;43.30;1.00;;;;;;5074583;28;20260;-77
2022/08/21 10:00:10;;;;;;;8.15;3.75;;;43.90;1.00;;;;;;5082486;28;20221;-77
2022/08/21 10:02:36;;;;;;;7.18;3.53;;;43.70;1.00;;;;;;5089067;28;20707;-77
2022/08/21 10:05:06;;;;;;;11.63;4.10;;;43.80;1.00;;;;;;5090277;28;20167;-77
2022/08/21 10:07:32;;;;;;;9.30;3.80;;;43.90;1.00;;;;;;5090178;28;20553;-77
2022/08/21 10:10:07;;;;;;;8.65;4.18;;;44.10;1.00;;;;;;5089184;28;20278;-77
2022/08/21 10:12:55;;;;;;;6.63;3.65;;;44.10;1.00;;;;;;5090098;28;20737;-77
2022/08/21 10:15:43;;;;;;;6.60;3.60;;;43.90;1.00;;;;;;5090355;28;20174;-77
2022/08/21 10:18:24;;;;;;;8.25;4.20;;;44.00;1.00;;;;;;5090414;28;20580;-77
2022/08/21 10:21:15;;;;;;;9.30;4.30;;;44.60;1.00;;;;;;5086401;28;20654;-77
2022/08/21 10:24:04;;;;;;;6.78;4.00;;;44.80;1.00;;;;;;5102018;28;20703;-77
2022/08/21 10:27:15;;;;;;;7.43;3.63;;;44.10;1.00;;;;;;5110664;28;20633;-77
2022/08/21 10:29:43;;;;;;;10.02;4.10;;;44.70;1.00;;;;;;5086127;28;20772;-77
2022/08/21 10:32:29;;;;;;;7.40;3.88;;;45.00;1.00;;;;;;5092845;28;20179;-77
2022/08/21 10:35:12;;;;;;;6.30;3.60;;;44.50;1.00;;;;;;5090616;28;20217;-77
2022/08/21 10:38:02;;;;;;;15.00;3.88;;;43.80;1.00;;;;;;5091724;28;20586;-77
2022/08/21 10:40:42;;;;;;;8.45;3.90;;;43.60;1.00;;;;;;5081396;28;20176;-77
2022/08/21 10:43:18;;;;;;;10.35;4.00;;;44.00;1.00;;;;;;5073465;28;20191;-77
2022/08/21 10:46:13;;;;;;;6.57;3.95;;;44.70;1.00;;;;;;5073512;28;20408;-77
2022/08/21 10:48:49;;;;;;;7.47;3.70;;;45.00;1.00;;;;;;5073302;28;20581;-77
2022/08/21 10:51:27;;;;;;;8.57;3.65;;;45.40;1.00;;;;;;5095540;28;20198;-77
2022/08/21 10:53:55;;;;;;;6.82;3.50;;;43.70;1.00;;;;;;5104977;28;20190;-77
2022/08/21 10:56:28;;;;;;;8.05;3.85;;;44.30;1.00;;;;;;5114169;28;20194;-77
2022/08/21 10:59:11;;;;;;;7.85;3.85;;;44.70;1.00;;;;;;5113893;28;20175;-77
2022/08/21 11:02:08;;;;;;;11.23;3.90;;;44.40;1.00;;;;;;5072902;28;20175;-77
2022/08/21 11:04:59;;;;;;;9.57;3.83;;;43.80;1.00;;;;;;5073460;28;20241;-77
2022/08/21 11:07:27;;;;;;;10.25;3.70;;;43.30;1.00;;;;;;5068789;28;20188;-77
2022/08/21 11:09:57;;;;;;;6.88;3.75;;;43.00;1.00;;;;;;5077977;28;20692;-77
2022/08/21 11:12:39;;;;;;;10.15;3.70;;;44.70;1.00;;;;;;5078493;28;20175;-77
2022/08/21 11:15:22;;;;;;;7.88;4.32;;;44.90;1.00;;;;;;5073051;28;20159;-77
2022/08/21 11:18:13;;;;;;;6.18;3.63;;;46.00;1.00;;;;;;5073198;28;20526;-77
2022/08/21 11:20:58;;;;;;;6.53;3.10;;;46.40;1.00;;;;;;5084775;28;20176;-77
2022/08/21 11:23:50;;;;;;;7.97;3.35;;;46.20;1.00;;;;;;5094444;28;20195;-77
2022/08/21 11:26:29;;;;;;;9.75;3.45;;;45.60;1.00;;;;;;5072915;28;20178;-77
2022/08/21 11:29:08;;;;;;;7.38;3.45;;;46.10;1.00;;;;;;5072881;28;20191;-77
2022/08/21 11:31:42;;;;;;;7.35;3.13;;;47.00;1.00;;;;;;5091538;28;20632;-77
2022/08/21 11:34:18;;;;;;;8.23;3.47;;;47.30;1.00;;;;;;5093342;28;20187;-77
2022/08/21 11:36:59;;;;;;;7.50;3.53;;;46.40;1.00;;;;;;5093274;28;20322;-77
2022/08/21 11:39:35;;;;;;;9.45;3.40;;;45.50;1.00;;;;;;5090209;28;20175;-76
2022/08/21 11:42:15;;;;;;;8.32;3.35;;;45.40;1.00;;;;;;5091303;28;20171;-77
2022/08/21 11:44:46;;;;;;;7.15;3.67;;;44.30;1.00;;;;;;5093164;28;20254;-77
2022/08/21 11:47:23;;;;;;;6.00;3.50;;;44.60;1.00;;;;;;5091538;28;20600;-77
2022/08/21 11:50:12;;;;;;;6.45;3.60;;;45.70;1.00;;;;;;5072489;28;20187;-77
2022/08/21 11:52:44;;;;;;;6.60;3.28;;;45.10;1.00;;;;;;5097939;28;20195;-77
2022/08/21 11:55:30;;;;;;;5.47;2.70;;;45.50;1.00;;;;;;5098329;28;20167;-77
2022/08/21 11:57:55;;;;;;;8.18;2.80;;;46.00;1.00;;;;;;5091517;28;20527;-77
2022/08/21 12:00:51;;;;;;;6.65;3.10;;;46.30;1.00;;;;;;5092321;28;20554;-77
2022/08/21 12:03:27;;;;;;;5.00;2.70;;;45.10;1.00;;;;;;5091291;28;20246;-77
2022/08/21 12:05:59;;;;;;;7.93;3.17;;;45.40;1.00;;;;;;5092125;28;20178;-77
2022/08/21 12:08:35;;;;;;;7.60;3.13;;;45.00;1.00;;;;;;5086844;28;20172;-77
2022/08/21 12:11:21;;;;;;;9.65;3.05;;;45.40;1.00;;;;;;5091429;28;20191;-77
2022/08/21 12:14:06;;;;;;;4.25;2.97;;;45.70;1.00;;;;;;5091865;28;20201;-77
2022/08/21 12:16:39;;;;;;;5.78;3.15;;;45.70;1.00;;;;;;5091925;28;20174;-77
2022/08/21 12:19:06;;;;;;;5.93;2.88;;;45.70;1.00;;;;;;5090856;28;20672;-77
2022/08/21 12:21:33;;;;;;;5.05;2.70;;;46.00;1.00;;;;;;5098091;28;20587;-77
2022/08/21 12:24:05;;;;;;;7.20;3.20;;;46.50;1.00;;;;;;5103272;28;20190;-77
2022/08/21 12:26:52;;;;;;;6.28;2.83;;;47.00;1.00;;;;;;5106629;28;20217;-78
2022/08/21 12:29:37;;;;;;;4.90;2.90;;;47.30;1.00;;;;;;5091170;28;20179;-79
2022/08/21 12:32:22;;;;;;;5.03;3.10;;;46.20;1.00;;;;;;5087673;28;20182;-78
2022/08/21 12:34:53;;;;;;;5.75;3.00;;;45.70;1.00;;;;;;5091542;28;20170;-77
2022/08/21 12:37:29;;;;;;;4.93;3.00;;;46.20;1.00;;;;;;5090388;28;20168;-77
2022/08/21 12:39:59;;;;;;;4.40;2.92;;;46.20;1.00;;;;;;5091432;28;20202;-76
2022/08/21 12:42:38;;;;;;;4.40;3.10;;;46.60;1.00;;;;;;5091387;28;20168;-78
2022/08/21 12:45:17;;;;;;;6.70;2.67;;;47.30;1.00;;;;;;5091387;28;20236;-77
2022/08/21 12:48:04;;;;;;;4.70;2.80;;;48.30;1.00;;;;;;5086144;28;20479;-77
2022/08/21 12:50:52;;;;;;;7.93;3.05;;;48.40;1.00;;;;;;5075680;28;20207;-77
2022/08/21 12:53:29;;;;;;;6.93;2.92;;;48.30;1.00;;;;;;5093833;28;20199;-77
2022/08/21 12:56:02;;;;;;;4.45;2.72;;;48.20;1.00;;;;;;5090984;28;20163;-78
2022/08/21 12:58:29;;;;;;;4.18;2.80;;;48.30;1.00;;;;;;5090788;28;20657;-77
2022/08/21 13:01:07;;;;;;;6.53;3.17;;;47.90;1.00;;;;;;5090984;28;20167;-77
2022/08/21 13:03:36;;;;;;;5.03;2.83;;;47.90;1.00;;;;;;5091037;28;20219;-77
2022/08/21 13:06:04;;;;;;;5.13;3.20;;;48.30;1.00;;;;;;5090802;28;20220;-77
2022/08/21 13:08:31;;;;;;;6.93;3.08;;;47.80;1.00;;;;;;5072726;28;20542;-77
2022/08/21 13:11:04;;;;;;;5.30;2.75;;;48.10;1.00;;;;;;5070085;28;20280;-77
2022/08/21 13:13:32;;;;;;;4.43;2.92;;;49.10;1.00;;;;;;5071010;28;20538;-77
2022/08/21 13:16:06;;;;;;;4.47;2.92;;;48.70;1.00;;;;;;5070582;28;20247;-78